sensor_id;sensor_type;location;lat;lon;timestamp;P1;durP1;ratioP1;P2;durP2;ratioP2
19036;SDS011;9651;49.138;8.900;2022-08-02T00:01:23;2.35;;;1.50;;
19036;SDS011;9651;49.138;8.900;2022-08-02T00:05:25;1.67;;;1.20;;
19036;SDS011;9651;49.138;8.900;2022-08-02T00:09:27;2.33;;;1.17;;
19036;SDS011;9651;49.138;8.900;2022-08-02T00:13:30;4.28;;;1.25;;
19036;SDS011;9651;49.138;8.900;2022-08-02T00:17:33;1.52;;;1.10;;
19036;SDS011;9651;49.138;8.900;2022-08-02T00:21:35;2.45;;;1.30;;
19036;SDS011;9651;49.138;8.900;2022-08-02T00:25:37;3.38;;;1.17;;
19036;SDS011;9651;49.138;8.900;2022-08-02T00:29:40;1.60;;;1.50;;
19036;SDS011;9651;49.138;8.900;2022-08-02T00:33:42;1.67;;;1.30;;
19036;SDS011;9651;49.138;8.900;2022-08-02T00:37:44;1.88;;;1.30;;
19036;SDS011;9651;49.138;8.900;2022-08-02T00:41:46;1.13;;;1.02;;
19036;SDS011;9651;49.138;8.900;2022-08-02T00:45:51;2.13;;;1.50;;
19036;SDS011;9651;49.138;8.900;2022-08-02T00:49:53;2.72;;;1.40;;
19036;SDS011;9651;49.138;8.900;2022-08-02T00:53:55;3.13;;;1.48;;
19036;SDS011;9651;49.138;8.900;2022-08-02T00:57:56;3.05;;;1.58;;
19036;SDS011;9651;49.138;8.900;2022-08-02T01:02:00;4.45;;;1.60;;
19036;SDS011;9651;49.138;8.900;2022-08-02T01:06:02;2.20;;;1.75;;
19036;SDS011;9651;49.138;8.900;2022-08-02T01:10:05;1.70;;;1.50;;
19036;SDS011;9651;49.138;8.900;2022-08-02T01:14:09;3.20;;;1.27;;
19036;SDS011;9651;49.138;8.900;2022-08-02T01:18:18;3.83;;;1.52;;
19036;SDS011;9651;49.138;8.900;2022-08-02T01:26:59;5.35;;;2.03;;
19036;SDS011;9651;49.138;8.900;2022-08-02T01:31:13;2.03;;;1.50;;
19036;SDS011;9651;49.138;8.900;2022-08-02T01:35:29;3.55;;;2.13;;
19036;SDS011;9651;49.138;8.900;2022-08-02T01:39:37;2.60;;;1.73;;
19036;SDS011;9651;49.138;8.900;2022-08-02T01:43:43;5.47;;;2.25;;
19036;SDS011;9651;49.138;8.900;2022-08-02T01:47:47;3.55;;;2.17;;
19036;SDS011;9651;49.138;8.900;2022-08-02T01:51:52;3.47;;;2.10;;
19036;SDS011;9651;49.138;8.900;2022-08-02T01:56:12;3.90;;;2.60;;
19036;SDS011;9651;49.138;8.900;2022-08-02T02:00:17;3.60;;;2.17;;
19036;SDS011;9651;49.138;8.900;2022-08-02T02:04:22;2.42;;;2.22;;
19036;SDS011;9651;49.138;8.900;2022-08-02T02:08:27;3.85;;;2.58;;
19036;SDS011;9651;49.138;8.900;2022-08-02T02:12:32;5.53;;;2.60;;
19036;SDS011;9651;49.138;8.900;2022-08-02T02:16:37;4.70;;;2.53;;
19036;SDS011;9651;49.138;8.900;2022-08-02T02:20:43;4.70;;;2.85;;
19036;SDS011;9651;49.138;8.900;2022-08-02T02:24:46;3.72;;;2.95;;
19036;SDS011;9651;49.138;8.900;2022-08-02T02:28:48;3.58;;;2.40;;
19036;SDS011;9651;49.138;8.900;2022-08-02T02:32:54;3.35;;;2.60;;
19036;SDS011;9651;49.138;8.900;2022-08-02T02:37:01;2.28;;;2.08;;
19036;SDS011;9651;49.138;8.900;2022-08-02T02:41:05;5.13;;;2.35;;
19036;SDS011;9651;49.138;8.900;2022-08-02T02:45:07;5.18;;;2.80;;
19036;SDS011;9651;49.138;8.900;2022-08-02T02:49:10;3.55;;;2.75;;
19036;SDS011;9651;49.138;8.900;2022-08-02T02:53:15;4.82;;;3.03;;
19036;SDS011;9651;49.138;8.900;2022-08-02T02:57:18;3.95;;;2.70;;
19036;SDS011;9651;49.138;8.900;2022-08-02T03:01:21;3.25;;;2.88;;
19036;SDS011;9651;49.138;8.900;2022-08-02T03:05:31;2.60;;;2.35;;
19036;SDS011;9651;49.138;8.900;2022-08-02T03:09:34;2.80;;;2.60;;
19036;SDS011;9651;49.138;8.900;2022-08-02T03:13:36;4.10;;;3.08;;
19036;SDS011;9651;49.138;8.900;2022-08-02T03:17:40;4.15;;;2.90;;
19036;SDS011;9651;49.138;8.900;2022-08-02T03:21:42;5.45;;;2.97;;
19036;SDS011;9651;49.138;8.900;2022-08-02T03:25:47;5.30;;;2.92;;
19036;SDS011;9651;49.138;8.900;2022-08-02T03:29:49;2.70;;;2.50;;
19036;SDS011;9651;49.138;8.900;2022-08-02T03:33:51;3.65;;;2.70;;
19036;SDS011;9651;49.138;8.900;2022-08-02T03:37:54;3.38;;;2.92;;
19036;SDS011;9651;49.138;8.900;2022-08-02T03:41:59;5.28;;;2.97;;
19036;SDS011;9651;49.138;8.900;2022-08-02T03:46:01;4.03;;;2.90;;
19036;SDS011;9651;49.138;8.900;2022-08-02T03:50:05;4.25;;;3.17;;
19036;SDS011;9651;49.138;8.900;2022-08-02T03:54:08;3.38;;;3.08;;
19036;SDS011;9651;49.138;8.900;2022-08-02T03:58:17;3.42;;;2.97;;
19036;SDS011;9651;49.138;8.900;2022-08-02T04:02:19;5.50;;;2.67;;
19036;SDS011;9651;49.138;8.900;2022-08-02T04:06:21;4.95;;;3.20;;
19036;SDS011;9651;49.138;8.900;2022-08-02T04:10:23;9.98;;;3.95;;
19036;SDS011;9651;49.138;8.900;2022-08-02T04:14:26;4.47;;;3.00;;
19036;SDS011;9651;49.138;8.900;2022-08-02T04:18:31;3.05;;;2.70;;
19036;SDS011;9651;49.138;8.900;2022-08-02T04:22:43;6.70;;;3.20;;
19036;SDS011;9651;49.138;8.900;2022-08-02T04:26:47;6.55;;;3.00;;
19036;SDS011;9651;49.138;8.900;2022-08-02T04:30:51;4.05;;;2.70;;
19036;SDS011;9651;49.138;8.900;2022-08-02T04:34:54;4.38;;;2.88;;
19036;SDS011;9651;49.138;8.900;2022-08-02T04:38:56;3.95;;;3.20;;
19036;SDS011;9651;49.138;8.900;2022-08-02T04:42:58;5.40;;;3.30;;
19036;SDS011;9651;49.138;8.900;2022-08-02T04:47:01;7.35;;;3.13;;
19036;SDS011;9651;49.138;8.900;2022-08-02T04:51:04;6.05;;;3.15;;
19036;SDS011;9651;49.138;8.900;2022-08-02T04:55:07;7.68;;;2.78;;
19036;SDS011;9651;49.138;8.900;2022-08-02T04:59:09;3.63;;;2.95;;
19036;SDS011;9651;49.138;8.900;2022-08-02T05:03:12;3.85;;;2.95;;
19036;SDS011;9651;49.138;8.900;2022-08-02T05:07:14;6.15;;;3.10;;
19036;SDS011;9651;49.138;8.900;2022-08-02T05:11:16;3.70;;;3.20;;
19036;SDS011;9651;49.138;8.900;2022-08-02T05:15:18;5.70;;;3.72;;
19036;SDS011;9651;49.138;8.900;2022-08-02T05:19:21;7.32;;;3.70;;
19036;SDS011;9651;49.138;8.900;2022-08-02T05:23:23;4.43;;;3.13;;
19036;SDS011;9651;49.138;8.900;2022-08-02T05:27:26;5.60;;;3.55;;
19036;SDS011;9651;49.138;8.900;2022-08-02T05:31:28;4.28;;;3.15;;
19036;SDS011;9651;49.138;8.900;2022-08-02T05:35:31;6.25;;;3.50;;
19036;SDS011;9651;49.138;8.900;2022-08-02T05:39:34;4.13;;;3.28;;
19036;SDS011;9651;49.138;8.900;2022-08-02T05:43:36;7.55;;;3.35;;
19036;SDS011;9651;49.138;8.900;2022-08-02T05:47:38;4.75;;;3.40;;
19036;SDS011;9651;49.138;8.900;2022-08-02T05:51:44;3.13;;;2.83;;
19036;SDS011;9651;49.138;8.900;2022-08-02T05:55:56;5.43;;;2.95;;
19036;SDS011;9651;49.138;8.900;2022-08-02T06:00:08;5.18;;;2.88;;
19036;SDS011;9651;49.138;8.900;2022-08-02T06:04:15;4.32;;;2.95;;
19036;SDS011;9651;49.138;8.900;2022-08-02T06:08:28;7.72;;;3.85;;
19036;SDS011;9651;49.138;8.900;2022-08-02T06:12:35;7.32;;;3.03;;
19036;SDS011;9651;49.138;8.900;2022-08-02T06:16:43;3.75;;;3.42;;
19036;SDS011;9651;49.138;8.900;2022-08-02T06:20:46;6.07;;;3.30;;
19036;SDS011;9651;49.138;8.900;2022-08-02T06:24:51;3.70;;;3.40;;
19036;SDS011;9651;49.138;8.900;2022-08-02T06:28:56;3.80;;;3.50;;
19036;SDS011;9651;49.138;8.900;2022-08-02T06:32:59;3.75;;;3.13;;
19036;SDS011;9651;49.138;8.900;2022-08-02T06:37:03;4.38;;;3.40;;
19036;SDS011;9651;49.138;8.900;2022-08-02T06:41:13;4.40;;;2.90;;
19036;SDS011;9651;49.138;8.900;2022-08-02T06:45:15;4.38;;;3.30;;
19036;SDS011;9651;49.138;8.900;2022-08-02T06:49:18;4.22;;;3.83;;
19036;SDS011;9651;49.138;8.900;2022-08-02T06:53:19;6.22;;;3.92;;
19036;SDS011;9651;49.138;8.900;2022-08-02T06:57:23;3.78;;;3.47;;
19036;SDS011;9651;49.138;8.900;2022-08-02T07:01:25;4.10;;;3.05;;
19036;SDS011;9651;49.138;8.900;2022-08-02T07:05:27;3.97;;;2.63;;
19036;SDS011;9651;49.138;8.900;2022-08-02T07:09:29;3.17;;;2.88;;
19036;SDS011;9651;49.138;8.900;2022-08-02T07:13:32;3.78;;;2.20;;
19036;SDS011;9651;49.138;8.900;2022-08-02T07:17:34;2.63;;;2.42;;
19036;SDS011;9651;49.138;8.900;2022-08-02T07:21:36;2.60;;;2.40;;
19036;SDS011;9651;49.138;8.900;2022-08-02T07:25:38;3.47;;;2.33;;
19036;SDS011;9651;49.138;8.900;2022-08-02T07:29:42;4.75;;;2.38;;
19036;SDS011;9651;49.138;8.900;2022-08-02T07:33:44;2.70;;;2.45;;
19036;SDS011;9651;49.138;8.900;2022-08-02T07:37:46;2.40;;;2.15;;
19036;SDS011;9651;49.138;8.900;2022-08-02T07:41:48;2.38;;;2.17;;
19036;SDS011;9651;49.138;8.900;2022-08-02T07:45:53;2.50;;;2.30;;
19036;SDS011;9651;49.138;8.900;2022-08-02T07:49:54;2.15;;;2.03;;
19036;SDS011;9651;49.138;8.900;2022-08-02T07:53:56;2.25;;;2.05;;
19036;SDS011;9651;49.138;8.900;2022-08-02T07:57:58;2.47;;;2.28;;
19036;SDS011;9651;49.138;8.900;2022-08-02T08:02:02;3.25;;;2.90;;
19036;SDS011;9651;49.138;8.900;2022-08-02T08:06:04;3.60;;;2.90;;
19036;SDS011;9651;49.138;8.900;2022-08-02T08:10:06;2.58;;;2.28;;
19036;SDS011;9651;49.138;8.900;2022-08-02T08:14:09;8.13;;;2.80;;
19036;SDS011;9651;49.138;8.900;2022-08-02T08:18:12;2.58;;;2.25;;
19036;SDS011;9651;49.138;8.900;2022-08-02T08:22:14;2.42;;;2.10;;
19036;SDS011;9651;49.138;8.900;2022-08-02T08:26:16;2.60;;;2.40;;
19036;SDS011;9651;49.138;8.900;2022-08-02T08:30:18;3.95;;;2.60;;
19036;SDS011;9651;49.138;8.900;2022-08-02T08:34:22;2.58;;;2.15;;
19036;SDS011;9651;49.138;8.900;2022-08-02T08:38:26;8.27;;;2.58;;
19036;SDS011;9651;49.138;8.900;2022-08-02T08:42:29;6.38;;;2.20;;
19036;SDS011;9651;49.138;8.900;2022-08-02T08:46:32;3.28;;;2.05;;
19036;SDS011;9651;49.138;8.900;2022-08-02T08:50:38;3.78;;;2.08;;
19036;SDS011;9651;49.138;8.900;2022-08-02T08:54:45;5.05;;;2.47;;
19036;SDS011;9651;49.138;8.900;2022-08-02T08:58:49;2.42;;;2.20;;
19036;SDS011;9651;49.138;8.900;2022-08-02T09:02:51;3.53;;;2.95;;
19036;SDS011;9651;49.138;8.900;2022-08-02T09:06:54;6.97;;;2.75;;
19036;SDS011;9651;49.138;8.900;2022-08-02T09:10:56;6.88;;;2.40;;
19036;SDS011;9651;49.138;8.900;2022-08-02T09:15:02;6.18;;;2.60;;
19036;SDS011;9651;49.138;8.900;2022-08-02T09:19:17;7.30;;;2.13;;
19036;SDS011;9651;49.138;8.900;2022-08-02T09:23:21;3.08;;;2.00;;
19036;SDS011;9651;49.138;8.900;2022-08-02T09:27:24;4.53;;;1.70;;
19036;SDS011;9651;49.138;8.900;2022-08-02T09:31:26;3.22;;;1.75;;
19036;SDS011;9651;49.138;8.900;2022-08-02T09:35:35;8.50;;;1.90;;
19036;SDS011;9651;49.138;8.900;2022-08-02T09:39:43;8.32;;;2.13;;
19036;SDS011;9651;49.138;8.900;2022-08-02T09:43:45;3.75;;;1.70;;
19036;SDS011;9651;49.138;8.900;2022-08-02T09:47:47;3.65;;;1.83;;
19036;SDS011;9651;49.138;8.900;2022-08-02T09:51:50;4.70;;;2.03;;
19036;SDS011;9651;49.138;8.900;2022-08-02T09:55:55;5.60;;;1.65;;
19036;SDS011;9651;49.138;8.900;2022-08-02T09:59:57;5.30;;;1.98;;
19036;SDS011;9651;49.138;8.900;2022-08-02T10:04:00;5.28;;;2.00;;
19036;SDS011;9651;49.138;8.900;2022-08-02T10:08:03;3.17;;;1.85;;
19036;SDS011;9651;49.138;8.900;2022-08-02T10:12:07;3.15;;;1.67;;
19036;SDS011;9651;49.138;8.900;2022-08-02T10:16:09;4.53;;;2.10;;
19036;SDS011;9651;49.138;8.900;2022-08-02T10:20:12;3.47;;;1.98;;
19036;SDS011;9651;49.138;8.900;2022-08-02T10:24:15;4.05;;;1.70;;
19036;SDS011;9651;49.138;8.900;2022-08-02T10:28:21;2.15;;;1.90;;
19036;SDS011;9651;49.138;8.900;2022-08-02T10:32:28;2.75;;;2.17;;
19036;SDS011;9651;49.138;8.900;2022-08-02T10:36:33;3.50;;;1.60;;
19036;SDS011;9651;49.138;8.900;2022-08-02T10:40:41;2.17;;;1.63;;
19036;SDS011;9651;49.138;8.900;2022-08-02T10:44:45;6.70;;;2.10;;
19036;SDS011;9651;49.138;8.900;2022-08-02T10:49:03;1.95;;;1.65;;
19036;SDS011;9651;49.138;8.900;2022-08-02T10:53:25;2.03;;;1.92;;
19036;SDS011;9651;49.138;8.900;2022-08-02T10:57:29;3.53;;;1.80;;
19036;SDS011;9651;49.138;8.900;2022-08-02T11:01:37;1.80;;;1.70;;
19036;SDS011;9651;49.138;8.900;2022-08-02T11:05:43;1.70;;;1.60;;
19036;SDS011;9651;49.138;8.900;2022-08-02T11:14:29;1.77;;;1.67;;
19036;SDS011;9651;49.138;8.900;2022-08-02T11:27:35;3.92;;;1.83;;
19036;SDS011;9651;49.138;8.900;2022-08-02T11:31:37;2.83;;;1.67;;
19036;SDS011;9651;49.138;8.900;2022-08-02T11:35:41;1.70;;;1.60;;
19036;SDS011;9651;49.138;8.900;2022-08-02T11:39:49;3.42;;;1.90;;
19036;SDS011;9651;49.138;8.900;2022-08-02T11:43:52;1.95;;;1.63;;
19036;SDS011;9651;49.138;8.900;2022-08-02T11:47:55;2.05;;;1.70;;
19036;SDS011;9651;49.138;8.900;2022-08-02T11:51:59;1.58;;;1.48;;
19036;SDS011;9651;49.138;8.900;2022-08-02T11:56:04;1.92;;;1.40;;
19036;SDS011;9651;49.138;8.900;2022-08-02T12:00:13;3.35;;;1.60;;
19036;SDS011;9651;49.138;8.900;2022-08-02T12:04:17;1.60;;;1.50;;
19036;SDS011;9651;49.138;8.900;2022-08-02T12:08:21;2.67;;;1.52;;
19036;SDS011;9651;49.138;8.900;2022-08-02T12:12:26;2.95;;;1.50;;
19036;SDS011;9651;49.138;8.900;2022-08-02T12:16:32;1.85;;;1.75;;
19036;SDS011;9651;49.138;8.900;2022-08-02T12:20:52;1.75;;;1.35;;
19036;SDS011;9651;49.138;8.900;2022-08-02T12:24:56;1.50;;;1.40;;
19036;SDS011;9651;49.138;8.900;2022-08-02T12:28:58;2.20;;;1.60;;
19036;SDS011;9651;49.138;8.900;2022-08-02T12:33:06;2.50;;;1.80;;
19036;SDS011;9651;49.138;8.900;2022-08-02T12:37:09;1.80;;;1.70;;
19036;SDS011;9651;49.138;8.900;2022-08-02T12:41:13;1.60;;;1.50;;
19036;SDS011;9651;49.138;8.900;2022-08-02T12:45:15;1.67;;;1.58;;
19036;SDS011;9651;49.138;8.900;2022-08-02T12:49:17;2.05;;;1.70;;
19036;SDS011;9651;49.138;8.900;2022-08-02T12:53:20;1.65;;;1.50;;
19036;SDS011;9651;49.138;8.900;2022-08-02T12:57:23;2.13;;;1.50;;
19036;SDS011;9651;49.138;8.900;2022-08-02T13:01:25;2.35;;;1.52;;
19036;SDS011;9651;49.138;8.900;2022-08-02T13:05:28;1.65;;;1.55;;
19036;SDS011;9651;49.138;8.900;2022-08-02T13:09:34;1.50;;;1.40;;
19036;SDS011;9651;49.138;8.900;2022-08-02T13:13:38;1.63;;;1.52;;
19036;SDS011;9651;49.138;8.900;2022-08-02T13:17:40;1.75;;;1.45;;
19036;SDS011;9651;49.138;8.900;2022-08-02T13:21:43;2.15;;;1.40;;
19036;SDS011;9651;49.138;8.900;2022-08-02T13:25:47;1.70;;;1.60;;
19036;SDS011;9651;49.138;8.900;2022-08-02T13:29:51;2.30;;;1.25;;
19036;SDS011;9651;49.138;8.900;2022-08-02T13:33:53;1.40;;;1.30;;
19036;SDS011;9651;49.138;8.900;2022-08-02T13:37:55;1.65;;;1.40;;
19036;SDS011;9651;49.138;8.900;2022-08-02T13:41:57;2.35;;;1.67;;
19036;SDS011;9651;49.138;8.900;2022-08-02T13:46:00;1.88;;;1.77;;
19036;SDS011;9651;49.138;8.900;2022-08-02T13:50:04;1.60;;;1.50;;
19036;SDS011;9651;49.138;8.900;2022-08-02T13:54:06;1.50;;;1.40;;
19036;SDS011;9651;49.138;8.900;2022-08-02T13:58:08;2.75;;;1.30;;
19036;SDS011;9651;49.138;8.900;2022-08-02T14:02:12;2.30;;;1.60;;
19036;SDS011;9651;49.138;8.900;2022-08-02T14:06:14;1.42;;;1.30;;
19036;SDS011;9651;49.138;8.900;2022-08-02T14:10:16;2.47;;;1.40;;
19036;SDS011;9651;49.138;8.900;2022-08-02T14:14:18;1.60;;;1.38;;
19036;SDS011;9651;49.138;8.900;2022-08-02T14:18:21;1.67;;;1.52;;
19036;SDS011;9651;49.138;8.900;2022-08-02T14:22:23;2.15;;;1.30;;
19036;SDS011;9651;49.138;8.900;2022-08-02T14:26:25;1.55;;;1.30;;
19036;SDS011;9651;49.138;8.900;2022-08-02T14:30:27;1.40;;;1.30;;
19036;SDS011;9651;49.138;8.900;2022-08-02T14:34:30;1.45;;;1.10;;
19036;SDS011;9651;49.138;8.900;2022-08-02T14:38:32;2.60;;;1.40;;
19036;SDS011;9651;49.138;8.900;2022-08-02T14:42:36;1.23;;;1.13;;
19036;SDS011;9651;49.138;8.900;2022-08-02T14:46:39;1.65;;;1.50;;
19036;SDS011;9651;49.138;8.900;2022-08-02T14:50:42;6.03;;;1.88;;
19036;SDS011;9651;49.138;8.900;2022-08-02T14:54:44;2.25;;;1.60;;
19036;SDS011;9651;49.138;8.900;2022-08-02T14:58:47;1.83;;;1.20;;
19036;SDS011;9651;49.138;8.900;2022-08-02T15:02:49;3.08;;;1.50;;
19036;SDS011;9651;49.138;8.900;2022-08-02T15:06:52;4.78;;;1.30;;
19036;SDS011;9651;49.138;8.900;2022-08-02T15:10:55;1.33;;;1.25;;
19036;SDS011;9651;49.138;8.900;2022-08-02T15:14:56;1.40;;;1.30;;
19036;SDS011;9651;49.138;8.900;2022-08-02T15:19:00;1.80;;;1.70;;
19036;SDS011;9651;49.138;8.900;2022-08-02T15:23:03;1.60;;;1.50;;
19036;SDS011;9651;49.138;8.900;2022-08-02T15:27:05;1.40;;;1.30;;
19036;SDS011;9651;49.138;8.900;2022-08-02T15:31:12;1.35;;;1.25;;
19036;SDS011;9651;49.138;8.900;2022-08-02T15:35:14;2.83;;;1.40;;
19036;SDS011;9651;49.138;8.900;2022-08-02T15:39:17;3.60;;;1.40;;
19036;SDS011;9651;49.138;8.900;2022-08-02T15:43:19;2.28;;;1.42;;
19036;SDS011;9651;49.138;8.900;2022-08-02T15:47:21;1.85;;;1.60;;
19036;SDS011;9651;49.138;8.900;2022-08-02T15:51:23;2.42;;;1.60;;
19036;SDS011;9651;49.138;8.900;2022-08-02T15:55:26;2.80;;;1.60;;
19036;SDS011;9651;49.138;8.900;2022-08-02T15:59:28;1.58;;;1.30;;
19036;SDS011;9651;49.138;8.900;2022-08-02T16:03:30;2.17;;;1.23;;
19036;SDS011;9651;49.138;8.900;2022-08-02T16:07:32;1.98;;;1.50;;
19036;SDS011;9651;49.138;8.900;2022-08-02T16:11:35;1.50;;;1.40;;
19036;SDS011;9651;49.138;8.900;2022-08-02T16:15:37;1.90;;;1.50;;
19036;SDS011;9651;49.138;8.900;2022-08-02T16:19:39;1.80;;;1.70;;
19036;SDS011;9651;49.138;8.900;2022-08-02T16:23:41;2.17;;;1.50;;
19036;SDS011;9651;49.138;8.900;2022-08-02T16:27:45;2.40;;;1.45;;
19036;SDS011;9651;49.138;8.900;2022-08-02T16:31:47;1.33;;;1.30;;
19036;SDS011;9651;49.138;8.900;2022-08-02T16:35:49;2.67;;;1.25;;
19036;SDS011;9651;49.138;8.900;2022-08-02T16:39:51;3.20;;;1.50;;
19036;SDS011;9651;49.138;8.900;2022-08-02T16:43:54;4.15;;;1.60;;
19036;SDS011;9651;49.138;8.900;2022-08-02T16:47:56;2.00;;;1.20;;
19036;SDS011;9651;49.138;8.900;2022-08-02T16:51:58;2.63;;;1.38;;
19036;SDS011;9651;49.138;8.900;2022-08-02T16:56:00;2.08;;;1.52;;
19036;SDS011;9651;49.138;8.900;2022-08-02T17:00:04;2.20;;;1.52;;
19036;SDS011;9651;49.138;8.900;2022-08-02T17:04:07;3.05;;;1.60;;
19036;SDS011;9651;49.138;8.900;2022-08-02T17:08:09;3.33;;;2.38;;
19036;SDS011;9651;49.138;8.900;2022-08-02T17:12:11;3.33;;;2.10;;
19036;SDS011;9651;49.138;8.900;2022-08-02T17:16:15;2.92;;;1.85;;
19036;SDS011;9651;49.138;8.900;2022-08-02T17:20:16;2.25;;;1.50;;
19036;SDS011;9651;49.138;8.900;2022-08-02T17:24:19;1.55;;;1.45;;
19036;SDS011;9651;49.138;8.900;2022-08-02T17:28:21;1.88;;;1.67;;
19036;SDS011;9651;49.138;8.900;2022-08-02T17:32:24;3.08;;;1.50;;
19036;SDS011;9651;49.138;8.900;2022-08-02T17:36:26;2.97;;;1.60;;
19036;SDS011;9651;49.138;8.900;2022-08-02T17:40:28;2.58;;;1.67;;
19036;SDS011;9651;49.138;8.900;2022-08-02T17:44:31;3.60;;;1.88;;
19036;SDS011;9651;49.138;8.900;2022-08-02T17:48:35;3.20;;;1.65;;
19036;SDS011;9651;49.138;8.900;2022-08-02T17:52:51;3.33;;;1.33;;
19036;SDS011;9651;49.138;8.900;2022-08-02T17:56:53;2.65;;;1.70;;
19036;SDS011;9651;49.138;8.900;2022-08-02T18:00:55;1.85;;;1.63;;
19036;SDS011;9651;49.138;8.900;2022-08-02T18:04:58;2.60;;;1.67;;
19036;SDS011;9651;49.138;8.900;2022-08-02T18:09:00;3.45;;;2.10;;
19036;SDS011;9651;49.138;8.900;2022-08-02T18:13:02;2.42;;;1.60;;
19036;SDS011;9651;49.138;8.900;2022-08-02T18:17:04;4.88;;;1.90;;
19036;SDS011;9651;49.138;8.900;2022-08-02T18:21:07;2.17;;;1.73;;
19036;SDS011;9651;49.138;8.900;2022-08-02T18:25:10;1.98;;;1.70;;
19036;SDS011;9651;49.138;8.900;2022-08-02T18:29:12;2.65;;;1.70;;
19036;SDS011;9651;49.138;8.900;2022-08-02T18:33:14;3.53;;;1.50;;
19036;SDS011;9651;49.138;8.900;2022-08-02T18:37:17;1.85;;;1.70;;
19036;SDS011;9651;49.138;8.900;2022-08-02T18:41:19;2.75;;;1.83;;
19036;SDS011;9651;49.138;8.900;2022-08-02T18:45:21;2.45;;;1.58;;
19036;SDS011;9651;49.138;8.900;2022-08-02T18:49:23;2.40;;;1.70;;
19036;SDS011;9651;49.138;8.900;2022-08-02T18:53:29;1.88;;;1.73;;
19036;SDS011;9651;49.138;8.900;2022-08-02T18:57:31;1.88;;;1.60;;
19036;SDS011;9651;49.138;8.900;2022-08-02T19:01:35;4.75;;;1.63;;
19036;SDS011;9651;49.138;8.900;2022-08-02T19:05:37;5.15;;;1.63;;
19036;SDS011;9651;49.138;8.900;2022-08-02T19:09:41;3.67;;;1.38;;
19036;SDS011;9651;49.138;8.900;2022-08-02T19:13:42;3.88;;;1.70;;
19036;SDS011;9651;49.138;8.900;2022-08-02T19:17:44;2.38;;;1.92;;
19036;SDS011;9651;49.138;8.900;2022-08-02T19:21:46;3.67;;;1.58;;
19036;SDS011;9651;49.138;8.900;2022-08-02T19:25:50;6.30;;;1.90;;
19036;SDS011;9651;49.138;8.900;2022-08-02T19:29:52;2.92;;;1.65;;
19036;SDS011;9651;49.138;8.900;2022-08-02T19:33:54;2.45;;;1.92;;
19036;SDS011;9651;49.138;8.900;2022-08-02T19:37:58;2.33;;;2.00;;
19036;SDS011;9651;49.138;8.900;2022-08-02T19:42:08;2.78;;;1.83;;
19036;SDS011;9651;49.138;8.900;2022-08-02T19:46:11;7.18;;;2.35;;
19036;SDS011;9651;49.138;8.900;2022-08-02T19:50:16;5.20;;;1.98;;
19036;SDS011;9651;49.138;8.900;2022-08-02T19:54:18;6.13;;;1.92;;
19036;SDS011;9651;49.138;8.900;2022-08-02T19:58:23;2.58;;;1.63;;
19036;SDS011;9651;49.138;8.900;2022-08-02T20:02:25;4.93;;;1.90;;
19036;SDS011;9651;49.138;8.900;2022-08-02T20:06:27;8.32;;;1.80;;
19036;SDS011;9651;49.138;8.900;2022-08-02T20:10:29;4.00;;;2.03;;
19036;SDS011;9651;49.138;8.900;2022-08-02T20:14:33;2.42;;;2.10;;
19036;SDS011;9651;49.138;8.900;2022-08-02T20:18:35;3.78;;;2.17;;
19036;SDS011;9651;49.138;8.900;2022-08-02T20:22:37;2.90;;;2.03;;
19036;SDS011;9651;49.138;8.900;2022-08-02T20:26:53;5.05;;;1.98;;
19036;SDS011;9651;49.138;8.900;2022-08-02T20:30:57;5.97;;;1.85;;
19036;SDS011;9651;49.138;8.900;2022-08-02T20:34:59;4.03;;;1.70;;
19036;SDS011;9651;49.138;8.900;2022-08-02T20:39:01;4.82;;;1.98;;
19036;SDS011;9651;49.138;8.900;2022-08-02T20:43:02;4.45;;;2.25;;
19036;SDS011;9651;49.138;8.900;2022-08-02T20:47:06;4.05;;;2.10;;
19036;SDS011;9651;49.138;8.900;2022-08-02T20:51:08;3.55;;;1.80;;
19036;SDS011;9651;49.138;8.900;2022-08-02T20:55:10;2.90;;;2.05;;
19036;SDS011;9651;49.138;8.900;2022-08-02T20:59:11;2.28;;;1.95;;
19036;SDS011;9651;49.138;8.900;2022-08-02T21:03:15;1.70;;;1.60;;
19036;SDS011;9651;49.138;8.900;2022-08-02T21:07:18;2.38;;;2.17;;
19036;SDS011;9651;49.138;8.900;2022-08-02T21:11:21;2.53;;;1.77;;
19036;SDS011;9651;49.138;8.900;2022-08-02T21:15:23;3.80;;;2.42;;
19036;SDS011;9651;49.138;8.900;2022-08-02T21:19:26;2.58;;;2.10;;
19036;SDS011;9651;49.138;8.900;2022-08-02T21:23:28;2.80;;;1.92;;
19036;SDS011;9651;49.138;8.900;2022-08-02T21:27:30;5.05;;;1.90;;
19036;SDS011;9651;49.138;8.900;2022-08-02T21:31:32;3.33;;;2.13;;
19036;SDS011;9651;49.138;8.900;2022-08-02T21:35:35;2.42;;;2.22;;
19036;SDS011;9651;49.138;8.900;2022-08-02T21:39:37;1.85;;;1.75;;
19036;SDS011;9651;49.138;8.900;2022-08-02T21:43:39;3.15;;;2.28;;
19036;SDS011;9651;49.138;8.900;2022-08-02T21:47:41;3.45;;;1.77;;
19036;SDS011;9651;49.138;8.900;2022-08-02T21:51:45;3.50;;;1.60;;
19036;SDS011;9651;49.138;8.900;2022-08-02T21:55:47;2.47;;;1.90;;
19036;SDS011;9651;49.138;8.900;2022-08-02T21:59:49;4.70;;;1.80;;
19036;SDS011;9651;49.138;8.900;2022-08-02T22:03:52;5.70;;;1.90;;
19036;SDS011;9651;49.138;8.900;2022-08-02T22:07:56;4.47;;;1.90;;
19036;SDS011;9651;49.138;8.900;2022-08-02T22:11:58;3.47;;;2.35;;
19036;SDS011;9651;49.138;8.900;2022-08-02T22:16:00;2.20;;;2.00;;
19036;SDS011;9651;49.138;8.900;2022-08-02T22:20:04;7.03;;;2.10;;
19036;SDS011;9651;49.138;8.900;2022-08-02T22:24:08;7.10;;;1.92;;
19036;SDS011;9651;49.138;8.900;2022-08-02T22:28:11;4.82;;;2.20;;
19036;SDS011;9651;49.138;8.900;2022-08-02T22:32:14;3.38;;;2.00;;
19036;SDS011;9651;49.138;8.900;2022-08-02T22:36:37;2.03;;;1.65;;
19036;SDS011;9651;49.138;8.900;2022-08-02T22:40:41;2.53;;;1.58;;
19036;SDS011;9651;49.138;8.900;2022-08-02T22:44:43;4.05;;;1.70;;
19036;SDS011;9651;49.138;8.900;2022-08-02T22:48:45;2.72;;;1.80;;
19036;SDS011;9651;49.138;8.900;2022-08-02T22:52:47;3.30;;;1.95;;
19036;SDS011;9651;49.138;8.900;2022-08-02T22:56:50;3.80;;;1.88;;
19036;SDS011;9651;49.138;8.900;2022-08-02T23:00:52;2.75;;;2.08;;
19036;SDS011;9651;49.138;8.900;2022-08-02T23:04:54;2.35;;;1.75;;
19036;SDS011;9651;49.138;8.900;2022-08-02T23:08:56;2.38;;;2.17;;
19036;SDS011;9651;49.138;8.900;2022-08-02T23:12:59;6.43;;;2.53;;
19036;SDS011;9651;49.138;8.900;2022-08-02T23:17:01;2.25;;;2.05;;
19036;SDS011;9651;49.138;8.900;2022-08-02T23:21:20;5.00;;;2.10;;
19036;SDS011;9651;49.138;8.900;2022-08-02T23:25:22;3.70;;;2.10;;
19036;SDS011;9651;49.138;8.900;2022-08-02T23:29:25;3.47;;;1.92;;
19036;SDS011;9651;49.138;8.900;2022-08-02T23:33:27;2.53;;;1.58;;
19036;SDS011;9651;49.138;8.900;2022-08-02T23:37:29;1.80;;;1.48;;
19036;SDS011;9651;49.138;8.900;2022-08-02T23:41:31;2.15;;;1.95;;
19036;SDS011;9651;49.138;8.900;2022-08-02T23:45:34;4.07;;;1.85;;
19036;SDS011;9651;49.138;8.900;2022-08-02T23:49:36;1.73;;;1.48;;
19036;SDS011;9651;49.138;8.900;2022-08-02T23:53:38;4.68;;;2.03;;
19036;SDS011;9651;49.138;8.900;2022-08-02T23:57:42;2.95;;;1.90;;
